createdAt,value
2023-08-12T00:00:20.559Z,25.53
2023-08-12T00:00:52.191Z,25.52
2023-08-12T00:01:23.740Z,25.50
2023-08-12T00:01:55.251Z,25.51
2023-08-12T00:02:26.775Z,25.46
2023-08-12T00:02:58.468Z,25.49
2023-08-12T00:03:30.061Z,25.50
2023-08-12T00:04:01.608Z,25.54
2023-08-12T00:04:33.157Z,25.54
2023-08-12T00:05:05.202Z,25.49
2023-08-12T00:05:36.775Z,25.45
2023-08-12T00:06:08.270Z,25.47
2023-08-12T00:06:39.847Z,25.52
2023-08-12T00:07:11.595Z,25.50
2023-08-12T00:07:43.279Z,25.54
2023-08-12T00:08:14.897Z,25.53
2023-08-12T00:08:46.650Z,25.53
2023-08-12T00:09:18.224Z,25.50
2023-08-12T00:09:49.767Z,25.55
2023-08-12T00:10:21.423Z,25.53
2023-08-12T00:10:52.835Z,25.49
2023-08-12T00:11:24.350Z,25.40
2023-08-12T00:11:55.859Z,25.44
2023-08-12T00:12:27.418Z,25.47
2023-08-12T00:12:58.931Z,25.41
2023-08-12T00:13:30.447Z,25.47
2023-08-12T00:14:01.962Z,25.43
2023-08-12T00:14:33.507Z,25.44
2023-08-12T00:15:05.317Z,25.46
2023-08-12T00:15:36.812Z,25.47
2023-08-12T00:16:08.341Z,25.43
2023-08-12T00:16:39.936Z,25.40
2023-08-12T00:17:11.646Z,25.45
2023-08-12T00:17:43.326Z,25.45
2023-08-12T00:18:14.886Z,25.43
2023-08-12T00:18:46.353Z,25.36
2023-08-12T00:19:17.759Z,25.37
2023-08-12T00:19:49.171Z,25.41
2023-08-12T00:20:20.634Z,25.54
2023-08-12T00:20:52.097Z,25.51
2023-08-12T00:21:23.552Z,25.54
2023-08-12T00:21:55.005Z,25.50
2023-08-12T00:22:26.484Z,25.52
2023-08-12T00:22:57.890Z,25.60
2023-08-12T00:23:29.344Z,25.58
2023-08-12T00:24:00.874Z,25.54
2023-08-12T00:24:32.412Z,25.52
2023-08-12T00:25:04.081Z,25.50
2023-08-12T00:25:35.623Z,25.52
2023-08-12T00:26:07.647Z,25.50
2023-08-12T00:26:39.144Z,25.52
2023-08-12T00:27:10.898Z,25.55
2023-08-12T00:27:42.721Z,25.49
2023-08-12T00:28:14.199Z,25.54
2023-08-12T00:28:45.728Z,25.60
2023-08-12T00:29:17.279Z,25.54
2023-08-12T00:29:49.341Z,25.54
2023-08-12T00:30:20.944Z,25.52
2023-08-12T00:30:52.444Z,25.58
2023-08-12T00:31:23.986Z,25.58
2023-08-12T00:31:55.572Z,25.57
2023-08-12T00:32:27.072Z,25.56
2023-08-12T00:32:58.512Z,25.53
2023-08-12T00:33:30.074Z,25.55
2023-08-12T00:34:01.445Z,25.55
2023-08-12T00:34:32.838Z,25.56
2023-08-12T00:35:04.314Z,25.57
2023-08-12T00:35:35.698Z,25.56
2023-08-12T00:36:07.097Z,25.55
2023-08-12T00:36:38.563Z,25.56
2023-08-12T00:37:10.239Z,25.55
2023-08-12T00:37:41.810Z,25.53
2023-08-12T00:38:13.261Z,25.55
2023-08-12T00:38:44.672Z,25.57
2023-08-12T00:39:16.166Z,25.57
2023-08-12T00:39:47.592Z,25.63
2023-08-12T00:40:19.020Z,25.62
2023-08-12T00:40:50.716Z,25.60
2023-08-12T00:41:22.189Z,25.60
2023-08-12T00:41:53.682Z,25.56
2023-08-12T00:42:25.281Z,25.50
2023-08-12T00:42:56.838Z,25.53
2023-08-12T00:43:28.425Z,25.52
2023-08-12T00:43:59.919Z,25.55
2023-08-12T00:44:31.559Z,25.57
2023-08-12T00:45:03.142Z,25.61
2023-08-12T00:45:34.689Z,25.63
2023-08-12T00:46:06.260Z,25.60
2023-08-12T00:46:38.382Z,25.60
2023-08-12T00:47:10.118Z,25.54
2023-08-12T00:47:42.247Z,25.50
2023-08-12T00:48:14.708Z,25.51
2023-08-12T00:48:46.423Z,25.53
2023-08-12T00:49:17.946Z,25.49
2023-08-12T00:49:50.397Z,25.51
2023-08-12T00:50:21.977Z,25.50
2023-08-12T00:50:53.473Z,25.48
2023-08-12T00:51:24.982Z,25.45
2023-08-12T00:51:56.657Z,25.45
2023-08-12T00:52:28.324Z,25.45
2023-08-12T00:53:00.047Z,25.40
2023-08-12T00:53:31.637Z,25.46
2023-08-12T00:54:05.912Z,25.45
2023-08-12T00:54:37.493Z,25.41
2023-08-12T00:55:09.079Z,25.38
2023-08-12T00:55:40.591Z,25.36
2023-08-12T00:56:12.137Z,25.33
2023-08-12T00:56:43.913Z,25.35
2023-08-12T00:57:15.836Z,25.31
2023-08-12T00:57:47.561Z,25.32
2023-08-12T00:58:19.019Z,25.32
2023-08-12T00:58:50.669Z,25.31
2023-08-12T00:59:22.246Z,25.31
2023-08-12T00:59:53.992Z,25.31
2023-08-12T01:00:25.575Z,25.30
2023-08-12T01:00:57.113Z,25.31
2023-08-12T01:01:28.628Z,25.29
2023-08-12T01:02:00.198Z,25.32
2023-08-12T01:02:31.884Z,25.33
2023-08-12T01:03:03.667Z,25.33
2023-08-12T01:03:35.257Z,25.31
2023-08-12T01:04:06.906Z,25.30
2023-08-12T01:04:38.609Z,25.31
2023-08-12T01:05:10.071Z,25.30
2023-08-12T01:05:41.603Z,25.29
2023-08-12T01:06:13.731Z,25.32
2023-08-12T01:06:45.329Z,25.32
2023-08-12T01:07:16.906Z,25.33
2023-08-12T01:07:48.434Z,25.33
2023-08-12T01:08:19.976Z,25.31
2023-08-12T01:08:51.597Z,25.32
2023-08-12T01:09:23.062Z,25.33
2023-08-12T01:09:54.562Z,25.31
2023-08-12T01:10:26.766Z,25.32
2023-08-12T01:11:09.419Z,25.31
2023-08-12T01:11:47.481Z,25.30
2023-08-12T01:12:28.726Z,25.32
2023-08-12T01:13:33.857Z,25.32
2023-08-12T01:14:11.266Z,25.30
2023-08-12T01:14:42.729Z,25.31
2023-08-12T01:15:18.516Z,25.30
2023-08-12T01:15:50.172Z,25.30
2023-08-12T01:16:21.737Z,25.32
2023-08-12T01:16:54.910Z,25.31
2023-08-12T01:17:26.940Z,25.32
2023-08-12T01:17:58.538Z,25.33
2023-08-12T01:18:30.073Z,25.33
2023-08-12T01:19:01.706Z,25.32
2023-08-12T01:19:36.810Z,25.32
2023-08-12T01:20:08.793Z,25.36
2023-08-12T01:20:40.267Z,25.34
2023-08-12T01:21:12.869Z,25.32
2023-08-12T01:21:44.679Z,25.34
2023-08-12T01:22:16.339Z,25.32
2023-08-12T01:22:47.822Z,25.34
2023-08-12T01:23:19.380Z,25.35
2023-08-12T01:23:50.934Z,25.35
2023-08-12T01:24:23.098Z,25.35
2023-08-12T01:24:54.680Z,25.35
2023-08-12T01:25:26.294Z,25.34
2023-08-12T01:25:57.825Z,25.34
2023-08-12T01:26:29.307Z,25.31
2023-08-12T01:27:00.932Z,25.33
2023-08-12T01:27:32.470Z,25.33
2023-08-12T01:28:04.125Z,25.32
2023-08-12T01:28:35.693Z,25.33
2023-08-12T01:29:07.154Z,25.32
2023-08-12T01:29:39.275Z,25.35
2023-08-12T01:30:11.016Z,25.32
2023-08-12T01:30:46.757Z,25.31
2023-08-12T01:31:24.793Z,25.33
2023-08-12T01:32:05.341Z,25.34
2023-08-12T01:32:42.762Z,25.33
2023-08-12T01:33:16.693Z,25.33
2023-08-12T01:33:50.773Z,25.31
2023-08-12T01:34:27.439Z,25.33
2023-08-12T01:35:08.028Z,25.32
2023-08-12T01:35:41.275Z,25.34
2023-08-12T01:36:12.759Z,25.32
2023-08-12T01:36:44.897Z,25.31
2023-08-12T01:37:18.622Z,25.33
2023-08-12T01:37:51.031Z,25.34
2023-08-12T01:38:22.688Z,25.34
2023-08-12T01:38:54.252Z,25.35
2023-08-12T01:39:25.763Z,25.33
2023-08-12T01:39:57.620Z,25.33
2023-08-12T01:40:29.465Z,25.33
2023-08-12T01:41:00.957Z,25.34
2023-08-12T01:41:32.531Z,25.34
2023-08-12T01:42:04.154Z,25.34
2023-08-12T01:42:35.757Z,25.35
2023-08-12T01:43:07.281Z,25.35
2023-08-12T01:43:39.369Z,25.33
2023-08-12T01:44:10.982Z,25.33
2023-08-12T01:44:42.693Z,25.33
2023-08-12T01:45:14.182Z,25.34
2023-08-12T01:45:45.764Z,25.35
2023-08-12T01:46:17.351Z,25.35
2023-08-12T01:46:48.915Z,25.33
2023-08-12T01:47:20.443Z,25.33
2023-08-12T01:47:52.046Z,25.34
2023-08-12T01:48:23.606Z,25.35
2023-08-12T01:48:55.141Z,25.34
2023-08-12T01:49:26.611Z,25.35
2023-08-12T01:49:58.162Z,25.35
2023-08-12T01:50:29.742Z,25.34
2023-08-12T01:51:01.352Z,25.34
2023-08-12T01:51:32.908Z,25.35
2023-08-12T01:52:04.489Z,25.34
2023-08-12T01:52:36.048Z,25.33
2023-08-12T01:53:07.590Z,25.33
2023-08-12T01:53:39.104Z,25.34
2023-08-12T01:54:10.626Z,25.33
2023-08-12T01:54:42.190Z,25.33
2023-08-12T01:55:13.737Z,25.32
2023-08-12T01:55:45.495Z,25.33
2023-08-12T01:56:17.009Z,25.32
2023-08-12T01:56:48.608Z,25.33
2023-08-12T01:57:20.156Z,25.34
2023-08-12T01:57:51.645Z,25.33
2023-08-12T01:58:23.223Z,25.32
2023-08-12T01:58:54.762Z,25.35
2023-08-12T01:59:26.281Z,25.33
2023-08-12T01:59:57.790Z,25.32
2023-08-12T02:00:29.423Z,25.33
2023-08-12T02:01:00.973Z,25.31
2023-08-12T02:01:32.555Z,25.32
2023-08-12T02:02:04.357Z,25.32
2023-08-12T02:02:36.044Z,25.32
2023-08-12T02:03:07.667Z,25.33
2023-08-12T02:03:39.261Z,25.32
2023-08-12T02:04:10.784Z,25.31
2023-08-12T02:04:42.336Z,25.32
2023-08-12T02:05:14.430Z,25.31
2023-08-12T02:05:46.006Z,25.32
2023-08-12T02:06:17.454Z,25.33
2023-08-12T02:06:49.018Z,25.33
2023-08-12T02:07:20.767Z,25.32
2023-08-12T02:07:52.281Z,25.33
2023-08-12T02:08:23.966Z,25.32
2023-08-12T02:08:55.501Z,25.33
2023-08-12T02:09:26.990Z,25.33
2023-08-12T02:09:58.589Z,25.32
2023-08-12T02:10:30.095Z,25.33
2023-08-12T02:11:01.620Z,25.33
2023-08-12T02:11:33.163Z,25.33
2023-08-12T02:12:04.820Z,25.32
2023-08-12T02:12:36.335Z,25.32
2023-08-12T02:13:07.865Z,25.33
2023-08-12T02:13:39.422Z,25.33
2023-08-12T02:14:11.062Z,25.33
2023-08-12T02:14:42.653Z,25.32
2023-08-12T02:15:14.194Z,25.34
2023-08-12T02:15:45.800Z,25.33
2023-08-12T02:16:17.357Z,25.34
2023-08-12T02:16:48.907Z,25.34
2023-08-12T02:17:20.431Z,25.34
2023-08-12T02:17:51.961Z,25.34
2023-08-12T02:18:23.521Z,25.33
2023-08-12T02:18:55.095Z,25.33
2023-08-12T02:19:26.680Z,25.34
2023-08-12T02:19:58.184Z,25.33
2023-08-12T02:20:29.706Z,25.33
2023-08-12T02:21:01.228Z,25.33
2023-08-12T02:21:32.718Z,25.33
2023-08-12T02:22:04.298Z,25.33
2023-08-12T02:22:35.715Z,25.32
2023-08-12T02:23:07.235Z,25.33
2023-08-12T02:23:38.768Z,25.33
2023-08-12T02:24:10.370Z,25.33
2023-08-12T02:24:41.890Z,25.33
2023-08-12T02:25:13.521Z,25.32
2023-08-12T02:25:45.086Z,25.34
2023-08-12T02:26:16.813Z,25.31
2023-08-12T02:26:48.334Z,25.32
2023-08-12T02:27:19.781Z,25.32
2023-08-12T02:27:51.307Z,25.32
2023-08-12T02:28:22.937Z,25.32
2023-08-12T02:28:54.423Z,25.33
2023-08-12T02:29:26.049Z,25.33
2023-08-12T02:29:57.532Z,25.33
2023-08-12T02:30:30.140Z,25.33
2023-08-12T02:31:01.651Z,25.33
2023-08-12T02:31:33.212Z,25.33
2023-08-12T02:32:04.882Z,25.34
2023-08-12T02:32:36.511Z,25.33
2023-08-12T02:33:08.413Z,25.33
2023-08-12T02:33:40.065Z,25.34
2023-08-12T02:34:11.544Z,25.33
2023-08-12T02:34:43.055Z,25.33
2023-08-12T02:35:14.562Z,25.33
2023-08-12T02:35:46.089Z,25.33
2023-08-12T02:36:17.583Z,25.32
2023-08-12T02:36:49.118Z,25.33
2023-08-12T02:37:20.633Z,25.33
2023-08-12T02:37:52.159Z,25.33
2023-08-12T02:38:23.790Z,25.33
2023-08-12T02:38:55.356Z,25.31
2023-08-12T02:39:26.995Z,25.33
2023-08-12T02:39:58.525Z,25.33
2023-08-12T02:40:30.071Z,25.35
2023-08-12T02:41:01.779Z,25.34
2023-08-12T02:41:33.339Z,25.33
2023-08-12T02:42:05.021Z,25.34
2023-08-12T02:42:36.593Z,25.34
2023-08-12T02:43:08.184Z,25.34
2023-08-12T02:43:39.800Z,25.34
2023-08-12T02:44:11.367Z,25.34
2023-08-12T02:44:42.910Z,25.35
2023-08-12T02:45:14.459Z,25.34
2023-08-12T02:45:46.027Z,25.34
2023-08-12T02:46:17.626Z,25.34
2023-08-12T02:46:49.131Z,25.33
2023-08-12T02:47:20.664Z,25.33
2023-08-12T02:47:52.219Z,25.32
2023-08-12T02:48:23.880Z,25.32
2023-08-12T02:48:55.543Z,25.32
2023-08-12T02:49:27.131Z,25.31
2023-08-12T02:49:58.618Z,25.31
2023-08-12T02:50:30.151Z,25.31
2023-08-12T02:51:01.640Z,25.31
2023-08-12T02:51:33.177Z,25.31
2023-08-12T02:52:04.882Z,25.30
2023-08-12T02:52:36.622Z,25.29
2023-08-12T02:53:08.424Z,25.30
2023-08-12T02:53:39.919Z,25.30
2023-08-12T02:54:11.488Z,25.29
2023-08-12T02:54:43.023Z,25.29
2023-08-12T02:55:14.586Z,25.29
2023-08-12T02:55:46.419Z,25.30
2023-08-12T02:56:17.908Z,25.30
2023-08-12T02:56:50.843Z,25.30
2023-08-12T02:57:22.365Z,25.29
2023-08-12T02:57:53.951Z,25.27
2023-08-12T02:58:25.551Z,25.27
2023-08-12T02:58:57.139Z,25.27
2023-08-12T02:59:28.731Z,25.27
2023-08-12T03:00:00.368Z,25.27
2023-08-12T03:00:31.919Z,25.27
2023-08-12T03:01:03.768Z,25.26
2023-08-12T03:01:35.364Z,25.26
2023-08-12T03:02:06.966Z,25.27
2023-08-12T03:02:38.471Z,25.26
2023-08-12T03:03:10.332Z,25.26
2023-08-12T03:03:41.961Z,25.26
2023-08-12T03:04:13.585Z,25.26
2023-08-12T03:04:45.220Z,25.26
2023-08-12T03:05:16.887Z,25.26
2023-08-12T03:05:48.693Z,25.26
2023-08-12T03:06:20.309Z,25.27
2023-08-12T03:06:51.908Z,25.27
2023-08-12T03:07:23.498Z,25.28
2023-08-12T03:07:55.263Z,25.25
2023-08-12T03:08:27.002Z,25.26
2023-08-12T03:08:58.600Z,25.25
2023-08-12T03:09:30.160Z,25.24
2023-08-12T03:10:01.746Z,25.25
2023-08-12T03:10:34.512Z,25.26
2023-08-12T03:11:06.008Z,25.25
2023-08-12T03:11:37.474Z,25.24
2023-08-12T03:12:09.021Z,25.25
2023-08-12T03:12:40.651Z,25.25
2023-08-12T03:13:12.200Z,25.24
2023-08-12T03:13:43.732Z,25.24
2023-08-12T03:14:15.290Z,25.24
2023-08-12T03:14:46.828Z,25.25
2023-08-12T03:15:18.383Z,25.24
2023-08-12T03:15:49.987Z,25.26
2023-08-12T03:16:21.536Z,25.24
2023-08-12T03:16:53.115Z,25.24
2023-08-12T03:17:24.634Z,25.24
2023-08-12T03:17:56.981Z,25.22
2023-08-12T03:18:28.574Z,25.24
2023-08-12T03:19:00.109Z,25.23
2023-08-12T03:19:31.658Z,25.22
2023-08-12T03:20:03.264Z,25.23
2023-08-12T03:20:34.751Z,25.24
2023-08-12T03:21:06.884Z,25.23
2023-08-12T03:21:38.372Z,25.22
2023-08-12T03:22:09.964Z,25.22
2023-08-12T03:22:41.501Z,25.22
2023-08-12T03:23:13.039Z,25.23
2023-08-12T03:23:44.564Z,25.21
2023-08-12T03:24:16.281Z,25.23
2023-08-12T03:24:48.677Z,25.22
2023-08-12T03:25:20.240Z,25.22
2023-08-12T03:25:51.735Z,25.22
2023-08-12T03:26:23.254Z,25.24
2023-08-12T03:26:54.793Z,25.24
2023-08-12T03:27:26.367Z,25.25
2023-08-12T03:27:57.925Z,25.25
2023-08-12T03:28:29.482Z,25.25
2023-08-12T03:29:01.123Z,25.24
2023-08-12T03:29:32.639Z,25.23
2023-08-12T03:30:04.276Z,25.22
2023-08-12T03:30:35.941Z,25.23
2023-08-12T03:31:07.416Z,25.22
2023-08-12T03:31:39.025Z,25.23
2023-08-12T03:32:10.675Z,25.22
2023-08-12T03:32:42.195Z,25.24
2023-08-12T03:33:13.838Z,25.23
2023-08-12T03:33:45.363Z,25.24
2023-08-12T03:34:16.851Z,25.24
2023-08-12T03:34:48.346Z,25.24
2023-08-12T03:35:20.451Z,25.23
2023-08-12T03:35:52.037Z,25.23
2023-08-12T03:36:23.642Z,25.24
2023-08-12T03:36:55.217Z,25.22
2023-08-12T03:37:26.873Z,25.21
2023-08-12T03:37:58.435Z,25.24
2023-08-12T03:38:29.979Z,25.23
2023-08-12T03:39:01.518Z,25.22
2023-08-12T03:39:33.045Z,25.23
2023-08-12T03:40:04.792Z,25.22
2023-08-12T03:40:38.853Z,25.22
2023-08-12T03:41:10.505Z,25.22
2023-08-12T03:41:42.048Z,25.21
2023-08-12T03:42:13.554Z,25.21
2023-08-12T03:42:45.153Z,25.20
2023-08-12T03:43:16.816Z,25.19
2023-08-12T03:43:48.336Z,25.20
2023-08-12T03:44:19.905Z,25.20
2023-08-12T03:44:51.422Z,25.21
2023-08-12T03:45:22.988Z,25.22
2023-08-12T03:45:54.587Z,25.23
2023-08-12T03:46:26.157Z,25.22
2023-08-12T03:46:57.791Z,25.22
2023-08-12T03:47:29.563Z,25.22
2023-08-12T03:48:01.121Z,25.22
2023-08-12T03:48:32.735Z,25.20
2023-08-12T03:49:04.386Z,25.22
2023-08-12T03:49:35.983Z,25.20
2023-08-12T03:50:07.763Z,25.22
2023-08-12T03:50:39.385Z,25.23
2023-08-12T03:51:10.846Z,25.23
2023-08-12T03:51:42.419Z,25.21
2023-08-12T03:52:13.943Z,25.20
2023-08-12T03:52:45.494Z,25.20
2023-08-12T03:53:16.991Z,25.20
2023-08-12T03:53:48.574Z,25.21
2023-08-12T03:54:20.081Z,25.21
2023-08-12T03:54:51.687Z,25.20
2023-08-12T03:55:23.158Z,25.21
2023-08-12T03:55:54.703Z,25.21
2023-08-12T03:56:26.188Z,25.22
2023-08-12T03:56:57.776Z,25.20
2023-08-12T03:57:29.363Z,25.20
2023-08-12T03:58:00.987Z,25.21
2023-08-12T03:58:32.521Z,25.21
2023-08-12T03:59:04.073Z,25.21
2023-08-12T03:59:35.564Z,25.22
2023-08-12T04:00:07.567Z,25.21
2023-08-12T04:00:42.349Z,25.22
2023-08-12T04:01:13.944Z,25.21
2023-08-12T04:01:45.507Z,25.19
2023-08-12T04:02:16.955Z,25.19
2023-08-12T04:02:48.607Z,25.20
2023-08-12T04:03:20.280Z,25.19
2023-08-12T04:03:51.838Z,25.19
2023-08-12T04:04:23.333Z,25.20
2023-08-12T04:04:54.833Z,25.21
2023-08-12T04:05:26.332Z,25.21
2023-08-12T04:05:57.892Z,25.20
2023-08-12T04:06:29.419Z,25.19
2023-08-12T04:07:01.124Z,25.19
2023-08-12T04:07:32.776Z,25.20
2023-08-12T04:08:04.425Z,25.18
2023-08-12T04:08:35.960Z,25.18
2023-08-12T04:09:07.514Z,25.19
2023-08-12T04:09:39.237Z,25.18
2023-08-12T04:10:10.873Z,25.20
2023-08-12T04:10:45.229Z,25.20
2023-08-12T04:11:16.802Z,25.19
2023-08-12T04:11:48.309Z,25.19
2023-08-12T04:12:19.864Z,25.21
2023-08-12T04:12:51.385Z,25.18
2023-08-12T04:13:22.915Z,25.20
2023-08-12T04:13:54.390Z,25.21
2023-08-12T04:14:25.932Z,25.21
2023-08-12T04:14:57.471Z,25.19
2023-08-12T04:15:29.037Z,25.19
2023-08-12T04:16:00.491Z,25.21
2023-08-12T04:16:32.052Z,25.21
2023-08-12T04:17:04.280Z,25.20
2023-08-12T04:17:35.938Z,25.19
2023-08-12T04:18:07.546Z,25.18
2023-08-12T04:18:39.076Z,25.20
2023-08-12T04:19:10.761Z,25.20
2023-08-12T04:19:42.303Z,25.20
2023-08-12T04:20:13.877Z,25.19
2023-08-12T04:20:46.328Z,25.19
2023-08-12T04:21:17.915Z,25.18
2023-08-12T04:21:49.456Z,25.17
2023-08-12T04:22:20.953Z,25.19
2023-08-12T04:22:52.470Z,25.18
2023-08-12T04:23:23.972Z,25.20
2023-08-12T04:23:55.600Z,25.19
2023-08-12T04:24:27.123Z,25.20
2023-08-12T04:24:58.692Z,25.18
2023-08-12T04:25:30.149Z,25.17
2023-08-12T04:26:01.771Z,25.16
2023-08-12T04:26:33.286Z,25.17
2023-08-12T04:27:04.830Z,25.19
2023-08-12T04:27:36.408Z,25.19
2023-08-12T04:28:07.911Z,25.18
2023-08-12T04:28:39.396Z,25.20
2023-08-12T04:29:11.089Z,25.19
2023-08-12T04:29:42.636Z,25.19
2023-08-12T04:30:14.260Z,25.18
2023-08-12T04:30:46.288Z,25.18
2023-08-12T04:31:18.056Z,25.18
2023-08-12T04:31:49.606Z,25.18
2023-08-12T04:32:21.102Z,25.19
2023-08-12T04:32:52.676Z,25.18
2023-08-12T04:33:24.438Z,25.19
2023-08-12T04:33:55.956Z,25.18
2023-08-12T04:34:27.491Z,25.20
2023-08-12T04:35:33.327Z,25.19
2023-08-12T04:36:05.311Z,25.18
2023-08-12T04:36:37.100Z,25.19
2023-08-12T04:37:08.853Z,25.18
2023-08-12T04:37:40.516Z,25.17
2023-08-12T04:38:12.236Z,25.17
2023-08-12T04:38:43.847Z,25.18
2023-08-12T04:39:15.521Z,25.17
2023-08-12T04:39:47.157Z,25.17
2023-08-12T04:40:18.770Z,25.18
2023-08-12T04:40:50.415Z,25.18
2023-08-12T04:41:22.067Z,25.18
2023-08-12T04:41:53.740Z,25.20
2023-08-12T04:42:25.338Z,25.18
2023-08-12T04:42:57.015Z,25.18
2023-08-12T04:43:28.710Z,25.18
2023-08-12T04:44:00.392Z,25.17
2023-08-12T04:44:32.071Z,25.19
2023-08-12T04:45:03.881Z,25.17
2023-08-12T04:45:35.551Z,25.19
2023-08-12T04:46:07.249Z,25.17
2023-08-12T04:46:38.924Z,25.18
2023-08-12T04:47:10.903Z,25.16
2023-08-12T04:47:42.978Z,25.18
2023-08-12T04:48:14.671Z,25.19
2023-08-12T04:48:46.413Z,25.19
2023-08-12T04:49:18.050Z,25.19
2023-08-12T04:49:49.648Z,25.20
2023-08-12T04:50:21.368Z,25.18
2023-08-12T04:50:53.062Z,25.17
2023-08-12T04:51:24.755Z,25.18
2023-08-12T04:51:56.673Z,25.17
2023-08-12T04:52:28.412Z,25.16
2023-08-12T04:53:00.097Z,25.16
2023-08-12T04:53:31.745Z,25.17
2023-08-12T04:54:03.491Z,25.18
2023-08-12T04:54:35.203Z,25.17
2023-08-12T04:55:06.949Z,25.17
2023-08-12T04:55:38.622Z,25.16
2023-08-12T04:56:10.279Z,25.18
2023-08-12T04:56:41.929Z,25.18
2023-08-12T04:57:13.882Z,25.18
2023-08-12T04:57:45.651Z,25.17
2023-08-12T04:58:17.201Z,25.17
2023-08-12T04:58:48.877Z,25.18
2023-08-12T04:59:20.593Z,25.16
2023-08-12T04:59:52.286Z,25.17
2023-08-12T05:00:24.029Z,25.17
2023-08-12T05:00:55.645Z,25.16
2023-08-12T05:01:27.288Z,25.19
2023-08-12T05:02:17.357Z,25.18
2023-08-12T05:02:49.287Z,25.19
2023-08-12T05:03:21.022Z,25.19
2023-08-12T05:03:52.664Z,25.19
2023-08-12T05:04:24.410Z,25.19
2023-08-12T05:04:56.112Z,25.21
2023-08-12T05:05:28.071Z,25.20
2023-08-12T05:05:59.812Z,25.20
2023-08-12T05:06:31.516Z,25.19
2023-08-12T05:07:03.170Z,25.19
2023-08-12T05:07:34.860Z,25.20
2023-08-12T05:08:06.548Z,25.20
2023-08-12T05:08:38.113Z,25.20
2023-08-12T05:09:09.879Z,25.20
2023-08-12T05:09:41.623Z,25.20
2023-08-12T05:10:13.220Z,25.18
2023-08-12T05:10:44.910Z,25.19
2023-08-12T05:11:16.556Z,25.19
2023-08-12T05:11:48.159Z,25.19
2023-08-12T05:12:19.848Z,25.17
2023-08-12T05:12:51.497Z,25.19
2023-08-12T05:13:23.141Z,25.19
2023-08-12T05:13:54.858Z,25.19
2023-08-12T05:14:26.533Z,25.20
2023-08-12T05:14:58.154Z,25.18
2023-08-12T05:15:29.788Z,25.19
2023-08-12T05:16:01.456Z,25.19
2023-08-12T05:16:33.150Z,25.20
2023-08-12T05:17:04.900Z,25.21
2023-08-12T05:17:36.565Z,25.20
2023-08-12T05:18:08.407Z,25.19
2023-08-12T05:18:40.107Z,25.21
2023-08-12T05:19:11.743Z,25.20
2023-08-12T05:19:43.445Z,25.21
2023-08-12T05:20:15.038Z,25.20
2023-08-12T05:20:47.447Z,25.20
2023-08-12T05:21:19.312Z,25.20
2023-08-12T05:21:50.997Z,25.20
2023-08-12T05:22:22.640Z,25.21
2023-08-12T05:22:54.268Z,25.20
2023-08-12T05:23:25.892Z,25.19
2023-08-12T05:23:57.514Z,25.19
2023-08-12T05:24:29.157Z,25.19
2023-08-12T05:25:00.910Z,25.18
2023-08-12T05:25:32.580Z,25.20
2023-08-12T05:26:04.168Z,25.20
2023-08-12T05:26:35.842Z,25.20
2023-08-12T05:27:07.569Z,25.20
2023-08-12T05:27:39.188Z,25.20
2023-08-12T05:28:10.786Z,25.19
2023-08-12T05:28:42.457Z,25.20
2023-08-12T05:29:14.179Z,25.20
2023-08-12T05:29:45.854Z,25.20
2023-08-12T05:30:17.610Z,25.20
2023-08-12T05:30:49.225Z,25.19
2023-08-12T05:31:20.884Z,25.20
2023-08-12T05:31:52.501Z,25.20
2023-08-12T05:32:24.190Z,25.19
2023-08-12T05:32:55.920Z,25.19
2023-08-12T05:33:27.665Z,25.19
2023-08-12T05:33:59.367Z,25.20
2023-08-12T05:34:30.966Z,25.21
2023-08-12T05:35:02.689Z,25.21
2023-08-12T05:35:35.006Z,25.20
2023-08-12T05:36:06.627Z,25.20
2023-08-12T05:36:38.344Z,25.19
2023-08-12T05:37:10.042Z,25.20
2023-08-12T05:37:41.758Z,25.20
2023-08-12T05:38:13.380Z,25.19
2023-08-12T05:38:44.976Z,25.19
2023-08-12T05:39:16.639Z,25.20
2023-08-12T05:39:48.271Z,25.21
2023-08-12T05:40:19.939Z,25.20
2023-08-12T05:40:51.702Z,25.20
2023-08-12T05:41:23.455Z,25.19
2023-08-12T05:41:55.107Z,25.19
2023-08-12T05:42:26.741Z,25.20
2023-08-12T05:42:58.438Z,25.19
2023-08-12T05:43:30.120Z,25.19
2023-08-12T05:44:01.804Z,25.20
2023-08-12T05:44:33.433Z,25.19
2023-08-12T05:45:07.386Z,25.20
2023-08-12T05:45:40.187Z,25.19
2023-08-12T05:46:11.917Z,25.19
2023-08-12T05:46:43.712Z,25.20
2023-08-12T05:47:15.334Z,25.20
2023-08-12T05:47:47.116Z,25.20
2023-08-12T05:48:19.023Z,25.19
2023-08-12T05:48:50.649Z,25.19
2023-08-12T05:49:22.250Z,25.21
2023-08-12T05:49:53.911Z,25.19
2023-08-12T05:50:25.552Z,25.19
2023-08-12T05:50:57.146Z,25.20
2023-08-12T05:51:30.747Z,25.20
2023-08-12T05:52:02.606Z,25.18
2023-08-12T05:52:34.385Z,25.18
2023-08-12T05:53:06.217Z,25.18
2023-08-12T05:53:38.332Z,25.17
2023-08-12T05:54:10.020Z,25.20
2023-08-12T05:54:41.707Z,25.19
2023-08-12T05:55:13.406Z,25.19
2023-08-12T05:55:45.098Z,25.17
2023-08-12T05:56:16.793Z,25.19
2023-08-12T05:56:48.372Z,25.20
2023-08-12T05:57:20.022Z,25.18
2023-08-12T05:57:51.628Z,25.18
2023-08-12T05:58:23.288Z,25.19
2023-08-12T05:58:54.918Z,25.20
2023-08-12T05:59:26.611Z,25.20
2023-08-12T05:59:58.270Z,25.21
2023-08-12T06:00:29.893Z,25.20
2023-08-12T06:01:01.619Z,25.21
2023-08-12T06:01:33.346Z,25.21
2023-08-12T06:02:05.083Z,25.21
2023-08-12T06:02:36.742Z,25.20
2023-08-12T06:03:08.685Z,25.19
2023-08-12T06:03:40.615Z,25.19
2023-08-12T06:04:12.347Z,25.21
2023-08-12T06:04:44.088Z,25.19
2023-08-12T06:05:15.751Z,25.20
2023-08-12T06:05:47.468Z,25.18
2023-08-12T06:06:19.163Z,25.17
2023-08-12T06:06:50.831Z,25.18
2023-08-12T06:07:22.471Z,25.17
2023-08-12T06:07:54.068Z,25.18
2023-08-12T06:08:25.751Z,25.19
2023-08-12T06:08:57.500Z,25.19
2023-08-12T06:09:29.191Z,25.18
2023-08-12T06:10:01.402Z,25.18
2023-08-12T06:10:34.083Z,25.18
2023-08-12T06:11:05.735Z,25.18
2023-08-12T06:11:37.350Z,25.18
2023-08-12T06:12:09.054Z,25.18
2023-08-12T06:12:40.801Z,25.18
2023-08-12T06:13:12.505Z,25.19
2023-08-12T06:13:44.202Z,25.19
2023-08-12T06:14:15.834Z,25.18
2023-08-12T06:14:47.517Z,25.18
2023-08-12T06:15:19.296Z,25.17
2023-08-12T06:15:51.036Z,25.19
2023-08-12T06:16:22.892Z,25.19
2023-08-12T06:16:56.126Z,25.18
2023-08-12T06:17:29.852Z,25.19
2023-08-12T06:18:02.110Z,25.19
2023-08-12T06:18:33.860Z,25.19
2023-08-12T06:19:05.580Z,25.19
2023-08-12T06:19:37.208Z,25.19
2023-08-12T06:20:09.081Z,25.18
2023-08-12T06:20:40.875Z,25.17
2023-08-12T06:21:12.574Z,25.17
2023-08-12T06:21:44.171Z,25.18
2023-08-12T06:22:15.995Z,25.18
2023-08-12T06:22:47.755Z,25.19
2023-08-12T06:23:19.368Z,25.20
2023-08-12T06:23:51.011Z,25.18
2023-08-12T06:24:22.595Z,25.18
2023-08-12T06:24:54.329Z,25.18
2023-08-12T06:25:25.961Z,25.18
2023-08-12T06:25:57.600Z,25.18
2023-08-12T06:26:29.245Z,25.18
2023-08-12T06:27:01.101Z,25.19
2023-08-12T06:27:32.849Z,25.17
2023-08-12T06:28:04.607Z,25.18
2023-08-12T06:28:36.360Z,25.19
2023-08-12T06:29:08.017Z,25.19
2023-08-12T06:29:39.622Z,25.20
2023-08-12T06:30:11.644Z,25.19
2023-08-12T06:30:45.694Z,25.20
2023-08-12T06:31:17.372Z,25.20
2023-08-12T06:31:49.159Z,25.19
2023-08-12T06:32:21.134Z,25.20
2023-08-12T06:32:52.787Z,25.19
2023-08-12T06:33:24.499Z,25.20
2023-08-12T06:33:56.247Z,25.19
2023-08-12T06:34:27.930Z,25.19
2023-08-12T06:34:59.666Z,25.20
2023-08-12T06:35:31.313Z,25.20
2023-08-12T06:36:02.920Z,25.19
2023-08-12T06:36:34.628Z,25.18
2023-08-12T06:37:06.286Z,25.18
2023-08-12T06:37:37.954Z,25.17
2023-08-12T06:38:09.601Z,25.17
2023-08-12T06:38:41.298Z,25.18
2023-08-12T06:39:12.920Z,25.18
2023-08-12T06:39:44.613Z,25.18
2023-08-12T06:40:16.386Z,25.17
2023-08-12T06:40:48.182Z,25.17
2023-08-12T06:41:19.869Z,25.18
2023-08-12T06:41:51.566Z,25.18
2023-08-12T06:42:23.517Z,25.18
2023-08-12T06:42:55.208Z,25.18
2023-08-12T06:43:29.953Z,25.17
2023-08-12T06:44:01.999Z,25.17
2023-08-12T06:44:33.586Z,25.18
2023-08-12T06:45:05.538Z,25.19
2023-08-12T06:45:37.298Z,25.19
2023-08-12T06:46:08.944Z,25.17
2023-08-12T06:46:40.575Z,25.18
2023-08-12T06:47:12.304Z,25.19
2023-08-12T06:47:43.976Z,25.17
2023-08-12T06:48:15.691Z,25.17
2023-08-12T06:48:47.306Z,25.16
2023-08-12T06:49:19.031Z,25.17
2023-08-12T06:49:50.666Z,25.17
2023-08-12T06:50:22.448Z,25.17
2023-08-12T06:50:57.464Z,25.18